Time;durP1;ratioP1;P1;durP2;ratioP2;P2;SDS_P1;SDS_P2;PMS_P1;PMS_P2;Temp;Humidity;BMP_temperature;BMP_pressure;BME280_temperature;BME280_humidity;BME280_pressure;Samples;Min_cycle;Max_cycle;Signal;HPM_P1;HPM_P2
2022/04/10 00:00:52;;;;;;;1.77;1.63;;;;;;;0.81;100.00;100381.22;5012972;28;20274;-73
2022/04/10 00:03:21;;;;;;;4.03;1.87;;;;;;;0.79;100.00;100382.91;5004707;28;20201;-73
2022/04/10 00:05:48;;;;;;;1.47;1.37;;;;;;;0.75;100.00;100384.59;5011511;28;20217;-73
2022/04/10 00:08:14;;;;;;;4.07;1.47;;;;;;;0.71;100.00;100385.41;5009786;28;20204;-73
2022/04/10 00:10:41;;;;;;;2.70;1.63;;;;;;;0.67;100.00;100386.19;5005888;28;20200;-73
2022/04/10 00:13:07;;;;;;;3.60;1.50;;;;;;;0.66;100.00;100398.19;5011483;28;20209;-73
2022/04/10 00:15:34;;;;;;;2.30;1.37;;;;;;;0.64;100.00;100397.31;5025590;28;20281;-73
2022/04/10 00:18:00;;;;;;;5.33;1.73;;;;;;;0.64;100.00;100396.44;5010446;28;20675;-73
2022/04/10 00:20:28;;;;;;;2.00;1.47;;;;;;;0.64;100.00;100393.88;5008124;28;20217;-73
2022/04/10 00:22:55;;;;;;;3.00;1.67;;;;;;;0.61;100.00;100393.84;5008596;28;20234;-73
2022/04/10 00:25:22;;;;;;;2.77;1.60;;;;;;;0.55;100.00;100398.06;5007151;28;20278;-74
2022/04/10 00:27:49;;;;;;;2.20;1.50;;;;;;;0.55;100.00;100392.94;5009731;28;20208;-73
2022/04/10 00:30:17;;;;;;;1.73;1.47;;;;;;;0.55;100.00;100402.34;4999522;28;20205;-73
2022/04/10 00:32:44;;;;;;;2.43;1.53;;;;;;;0.48;100.00;100403.97;4994039;28;20219;-73
2022/04/10 00:35:13;;;;;;;4.20;1.57;;;;;;;0.46;100.00;100403.09;5007169;28;20200;-73
2022/04/10 00:37:41;;;;;;;2.87;1.60;;;;;;;0.46;100.00;100400.53;4999141;28;20231;-73
2022/04/10 00:40:10;;;;;;;1.77;1.40;;;;;;;0.46;100.00;100404.78;5004450;28;20208;-73
2022/04/10 00:42:40;;;;;;;2.70;1.47;;;;;;;0.41;100.00;100403.91;4981204;28;20203;-73
2022/04/10 00:45:09;;;;;;;1.40;1.30;;;;;;;0.37;100.00;100408.13;4997286;28;20219;-73
2022/04/10 00:47:36;;;;;;;1.97;1.00;;;;;;;0.35;100.00;100402.09;5010850;28;20230;-73
2022/04/10 00:50:06;;;;;;;3.13;1.50;;;;;;;0.30;100.00;100414.88;4994533;28;20213;-73
2022/04/10 00:52:34;;;;;;;1.67;1.43;;;;;;;0.28;100.00;100414.00;4991312;28;20219;-73
2022/04/10 00:55:01;;;;;;;3.33;1.47;;;;;;;0.25;100.00;100408.84;4998339;28;20197;-73
2022/04/10 00:57:28;;;;;;;2.47;1.47;;;;;;;0.24;100.00;100417.34;5007013;28;20209;-73
2022/04/10 00:59:55;;;;;;;1.90;1.40;;;;;;;0.20;100.00;100414.75;4991716;28;20205;-73
2022/04/10 01:02:22;;;;;;;6.63;1.50;;;;;;;0.14;100.00;100413.81;5007860;28;20944;-73
2022/04/10 01:04:49;;;;;;;1.43;1.33;;;;;;;0.12;100.00;100406.94;4990050;28;20205;-73
2022/04/10 01:07:18;;;;;;;1.63;1.50;;;;;;;0.07;100.00;100401.78;5016356;28;20217;-73
2022/04/10 01:09:47;;;;;;;2.03;1.40;;;;;;;0.08;100.00;100408.59;5001986;28;20203;-73
2022/04/10 01:12:14;;;;;;;4.90;1.60;;;;;;;0.07;100.00;100398.31;5014545;28;20763;-73
2022/04/10 01:14:45;;;;;;;2.83;1.60;;;;;;;0.10;100.00;100408.63;4992495;28;20524;-73
2022/04/10 01:17:15;;;;;;;5.77;1.80;;;;;;;0.09;100.00;100410.34;5003526;28;20718;-73
2022/04/10 01:19:42;;;;;;;3.30;1.70;;;;;;;0.05;100.00;100407.72;4991032;28;20196;-73
2022/04/10 01:22:19;;;;;;;2.80;1.60;;;;;;;-0.01;100.00;100417.03;4987845;28;20271;-73
2022/04/10 01:24:52;;;;;;;3.53;1.60;;;;;;;-0.05;100.00;100419.56;4991222;28;20729;-71
2022/04/10 01:27:20;;;;;;;2.57;1.67;;;;;;;-0.10;100.00;100416.91;4997148;28;20740;-71
2022/04/10 01:29:47;;;;;;;2.07;1.53;;;;;;;-0.11;100.00;100422.00;5001571;28;20222;-71
2022/04/10 01:32:13;;;;;;;1.70;1.60;;;;;;;-0.13;100.00;100424.56;4998556;28;20214;-70
2022/04/10 01:34:41;;;;;;;4.30;1.70;;;;;;;-0.14;100.00;100422.84;5004254;28;20705;-71
2022/04/10 01:37:09;;;;;;;3.37;1.97;;;;;;;-0.16;100.00;100421.09;4996837;28;20225;-70
2022/04/10 01:39:37;;;;;;;2.20;1.90;;;;;;;-0.14;100.00;100427.97;5009673;28;20270;-71
2022/04/10 01:42:04;;;;;;;3.13;1.97;;;;;;;-0.15;100.00;100427.94;5010639;28;20213;-71
2022/04/10 01:44:30;;;;;;;2.70;2.10;;;;;;;-0.17;100.00;100427.91;5013105;28;20698;-71
2022/04/10 01:46:57;;;;;;;3.70;2.03;;;;;;;-0.15;100.00;100431.38;5009110;28;20231;-70
2022/04/10 01:49:23;;;;;;;2.60;1.90;;;;;;;-0.16;100.00;100431.34;5017295;28;20204;-71
2022/04/10 01:51:50;;;;;;;4.87;2.27;;;;;;;-0.15;100.00;100435.63;5005476;28;20200;-71
2022/04/10 01:54:17;;;;;;;3.33;2.43;;;;;;;-0.13;100.00;100434.81;4995674;28;20247;-71
2022/04/10 01:56:46;;;;;;;3.37;2.40;;;;;;;-0.15;100.00;100440.75;4989621;28;20323;-71
2022/04/10 01:59:12;;;;;;;3.33;1.80;;;;;;;-0.14;100.00;100439.91;4988940;28;20239;-70
2022/04/10 02:01:39;;;;;;;2.37;2.03;;;;;;;-0.16;100.00;100449.28;4993797;28;20617;-71
2022/04/10 02:04:06;;;;;;;5.10;2.43;;;;;;;-0.24;100.00;100442.34;4998501;28;20204;-71
2022/04/10 02:06:35;;;;;;;4.57;2.43;;;;;;;-0.24;100.00;100444.91;4990085;28;20298;-71
2022/04/10 02:09:01;;;;;;;4.77;2.10;;;;;;;-0.27;100.00;100441.44;4994407;28;20204;-70
2022/04/10 02:11:28;;;;;;;4.07;2.20;;;;;;;-0.29;100.00;100438.84;4992667;28;20201;-71
2022/04/10 02:14:01;;;;;;;4.80;2.70;;;;;;;-0.22;100.00;100439.81;4989501;28;20262;-71
2022/04/10 02:16:28;;;;;;;2.57;2.30;;;;;;;-0.18;100.00;100440.72;4994383;28;20225;-70
2022/04/10 02:18:54;;;;;;;3.30;2.10;;;;;;;-0.17;100.00;100440.72;5000908;28;20620;-71
2022/04/10 02:21:21;;;;;;;5.37;1.90;;;;;;;-0.17;100.00;100442.44;4989189;28;20227;-71
2022/04/10 02:23:47;;;;;;;4.43;2.63;;;;;;;-0.23;100.00;100451.75;4997137;28;20212;-71
2022/04/10 02:26:14;;;;;;;5.57;2.30;;;;;;;-0.25;100.00;100455.13;5015134;28;20305;-71
2022/04/10 02:28:42;;;;;;;6.20;2.43;;;;;;;-0.26;100.00;100446.59;4999804;28;20642;-70
2022/04/10 02:31:10;;;;;;;3.83;2.83;;;;;;;-0.29;100.00;100454.22;4997361;28;20207;-71
2022/04/10 02:33:37;;;;;;;3.87;2.40;;;;;;;-0.27;100.00;100456.81;5019190;28;20665;-70
2022/04/10 02:36:05;;;;;;;4.63;2.57;;;;;;;-0.32;100.00;100453.31;4993877;28;20287;-70
2022/04/10 02:38:32;;;;;;;3.30;2.13;;;;;;;-0.32;100.00;100454.16;5001269;28;20204;-73
2022/04/10 02:40:59;;;;;;;4.10;2.40;;;;;;;-0.34;100.00;100455.00;5000294;28;20231;-73
2022/04/10 02:43:26;;;;;;;2.90;2.20;;;;;;;-0.33;100.00;100456.72;5001885;28;20243;-73
2022/04/10 02:45:57;;;;;;;3.53;2.40;;;;;;;-0.24;100.00;100464.53;5013526;28;20666;-73
2022/04/10 02:48:27;;;;;;;4.67;2.43;;;;;;;-0.15;100.00;100457.00;4997742;28;20196;-74
2022/04/10 02:50:55;;;;;;;4.93;2.50;;;;;;;-0.08;100.00;100456.25;4999363;28;20200;-73
2022/04/10 02:53:21;;;;;;;3.80;2.30;;;;;;;-0.02;100.00;100458.91;4995237;28;20206;-73
2022/04/10 02:55:49;;;;;;;3.53;2.37;;;;;;;0.05;100.00;100457.25;4989944;28;20582;-73
2022/04/10 02:58:16;;;;;;;5.47;2.70;;;;;;;0.10;100.00;100460.75;4998368;28;20200;-73
2022/04/10 03:00:42;;;;;;;3.83;2.73;;;;;;;0.20;100.00;100459.19;4993339;28;20271;-73
2022/04/10 03:03:09;;;;;;;3.43;2.60;;;;;;;0.32;100.00;100461.94;4994652;28;20212;-73
2022/04/10 03:05:37;;;;;;;6.50;3.53;;;;;;;0.40;100.00;100466.28;4995447;28;20200;-73
2022/04/10 03:08:04;;;;;;;10.80;3.10;;;;;;;0.51;100.00;100463.03;5010026;28;20209;-73
2022/04/10 03:10:30;;;;;;;6.60;3.00;;;;;;;0.53;100.00;100457.91;5002218;28;20214;-73
2022/04/10 03:12:58;;;;;;;7.80;3.00;;;;;;;0.59;100.00;100465.66;4993206;28;20250;-73
2022/04/10 03:15:24;;;;;;;6.93;3.07;;;;;;;0.65;100.00;100464.88;4992045;28;20704;-73
2022/04/10 03:17:52;;;;;;;5.17;3.23;;;;;;;0.70;100.00;100473.50;4992206;28;20250;-73
2022/04/10 03:20:19;;;;;;;7.77;3.40;;;;;;;0.73;100.00;100471.81;4987575;28;20658;-73
2022/04/10 03:22:47;;;;;;;9.90;3.33;;;;;;;0.74;100.00;100476.13;4989991;28;20220;-72
2022/04/10 03:25:15;;;;;;;6.53;2.87;;;;;;;0.82;100.00;100480.47;4995002;28;20241;-73
2022/04/10 03:27:42;;;;;;;6.73;3.03;;;;;;;0.85;100.00;100481.38;5000066;28;20276;-73
2022/04/10 03:30:11;;;;;;;7.20;3.00;;;;;;;0.93;100.00;100474.63;4996515;28;20548;-72
2022/04/10 03:32:40;;;;;;;4.63;2.77;;;;;;;1.01;100.00;100478.97;4991318;28;20207;-72
2022/04/10 03:35:08;;;;;;;5.70;2.80;;;;;;;1.05;100.00;100484.16;4993455;28;20207;-72
2022/04/10 03:37:34;;;;;;;4.57;3.17;;;;;;;1.08;100.00;100473.06;5009565;28;20255;-72
2022/04/10 03:40:03;;;;;;;4.57;2.77;;;;;;;1.11;100.00;100484.22;4987493;28;20208;-72
2022/04/10 03:42:37;;;;;;;7.13;2.80;;;;;;;1.15;100.00;100491.97;4998527;28;20223;-73
2022/04/10 03:45:05;;;;;;;6.00;2.90;;;;;;;1.19;100.00;100493.72;4998814;28;22169;-72
2022/04/10 03:47:31;;;;;;;4.27;2.67;;;;;;;1.22;100.00;100498.88;5006759;28;20274;-73
2022/04/10 03:50:02;;;;;;;7.10;3.17;;;;;;;1.26;100.00;100503.19;4995485;28;20745;-72
2022/04/10 03:52:34;;;;;;;3.80;2.60;;;;;;;1.29;100.00;100505.81;4998846;28;20685;-72
2022/04/10 03:55:02;;;;;;;4.70;2.53;;;;;;;1.31;100.00;100511.81;4990446;28;20200;-74
2022/04/10 03:57:29;;;;;;;5.33;2.50;;;;;;;1.34;100.00;100511.84;5018823;23;20778;-66
2022/04/10 03:59:59;;;;;;;7.53;2.60;;;;;;;1.36;100.00;100506.75;5002271;28;20214;-66
2022/04/10 04:02:27;;;;;;;4.00;2.63;;;;;;;1.42;100.00;100514.47;4998821;28;20219;-66
2022/04/10 04:04:53;;;;;;;3.17;2.50;;;;;;;1.44;100.00;100508.53;4985155;28;20220;-66
2022/04/10 04:07:21;;;;;;;5.10;2.80;;;;;;;1.46;100.00;100522.25;5002256;28;20243;-64
2022/04/10 04:09:48;;;;;;;5.87;2.80;;;;;;;1.47;100.00;100523.09;5004136;28;20205;-66
2022/04/10 04:12:16;;;;;;;7.37;3.03;;;;;;;1.49;100.00;100522.25;4996853;23;20272;-73
2022/04/10 04:14:42;;;;;;;4.80;2.70;;;;;;;1.54;100.00;100531.72;4984448;28;20201;-73
2022/04/10 04:17:09;;;;;;;6.03;3.33;;;;;;;1.58;100.00;100536.03;4981861;28;20303;-73
2022/04/10 04:19:36;;;;;;;5.20;3.17;;;;;;;1.59;100.00;100551.50;4978501;28;20353;-73
2022/04/10 04:22:03;;;;;;;6.70;3.17;;;;;;;1.61;100.00;100548.94;4961753;28;20236;-73
2022/04/10 04:24:33;;;;;;;8.60;3.20;;;;;;;1.63;100.00;100545.50;4983821;28;20634;-73
2022/04/10 04:27:00;;;;;;;4.20;2.70;;;;;;;1.63;100.00;100550.66;4983716;28;20233;-73
2022/04/10 04:29:29;;;;;;;2.97;2.50;;;;;;;1.65;100.00;100556.69;4967786;28;20650;-73
2022/04/10 04:31:55;;;;;;;6.63;2.93;;;;;;;1.66;100.00;100560.13;4978155;28;20690;-73
2022/04/10 04:34:23;;;;;;;6.07;2.80;;;;;;;1.68;100.00;100564.41;4964144;28;20765;-72
2022/04/10 04:36:50;;;;;;;4.53;2.63;;;;;;;1.69;100.00;100566.16;4966125;28;20205;-72
2022/04/10 04:39:17;;;;;;;7.10;2.87;;;;;;;1.73;100.00;100577.31;4961310;28;20902;-73
2022/04/10 04:41:43;;;;;;;9.20;3.37;;;;;;;1.75;100.00;100582.47;4978923;28;20320;-73
2022/04/10 04:44:10;;;;;;;9.17;3.10;;;;;;;1.76;100.00;100572.22;4958206;28;20206;-72
2022/04/10 04:46:38;;;;;;;6.20;3.57;;;;;;;1.76;100.00;100582.50;4963404;28;20304;-73
2022/04/10 04:49:05;;;;;;;5.20;3.07;;;;;;;1.74;100.00;100584.16;4962283;28;20195;-73
2022/04/10 04:51:34;;;;;;;5.23;2.73;;;;;;;1.76;100.00;100584.19;4961848;28;20214;-73
2022/04/10 04:54:02;;;;;;;6.20;2.87;;;;;;;1.75;100.00;100591.03;4962136;28;20209;-73
2022/04/10 04:56:28;;;;;;;6.10;3.00;;;;;;;1.75;100.00;100587.63;4959239;28;20254;-72
2022/04/10 04:58:54;;;;;;;4.50;2.70;;;;;;;1.74;100.00;100597.03;4964636;28;20209;-73
2022/04/10 05:01:21;;;;;;;6.40;2.77;;;;;;;1.76;100.00;100604.75;4960850;28;20362;-73
2022/04/10 05:03:50;;;;;;;5.97;2.67;;;;;;;1.80;100.00;100606.53;4982447;28;20217;-73
2022/04/10 05:06:16;;;;;;;5.00;2.70;;;;;;;1.84;100.00;100615.97;4966381;28;20680;-73
2022/04/10 05:08:46;;;;;;;6.10;3.50;;;;;;;1.83;100.00;100612.56;4980519;28;20206;-73
2022/04/10 05:11:13;;;;;;;5.47;2.57;;;;;;;1.87;100.00;100613.44;4966772;28;20229;-73
2022/04/10 05:13:40;;;;;;;5.80;2.30;;;;;;;1.87;100.00;100613.44;4965947;28;20211;-73
2022/04/10 05:16:07;;;;;;;3.83;2.67;;;;;;;1.87;100.00;100614.28;4960651;28;20207;-73
2022/04/10 05:18:36;;;;;;;6.70;2.67;;;;;;;1.88;100.00;100620.28;4966560;28;20292;-73
2022/04/10 05:21:04;;;;;;;3.17;2.07;;;;;;;1.93;100.00;100620.34;4982947;28;20595;-73
2022/04/10 05:23:31;;;;;;;4.13;2.20;;;;;;;1.93;100.00;100633.22;4965126;28;20530;-73
2022/04/10 05:26:06;;;;;;;4.93;2.40;;;;;;;1.93;100.00;100638.34;4968960;28;20225;-73
2022/04/10 05:28:35;;;;;;;5.43;2.50;;;;;;;1.95;100.00;100632.34;4964584;28;20209;-73
2022/04/10 05:31:02;;;;;;;6.27;2.70;;;;;;;1.99;100.00;100633.28;4965331;28;20234;-73
2022/04/10 05:33:34;;;;;;;6.50;2.00;;;;;;;1.99;100.00;100639.28;4967799;28;20264;-72
2022/04/10 05:36:01;;;;;;;6.20;2.20;;;;;;;2.02;100.00;100647.03;4979651;28;20237;-73
2022/04/10 05:38:33;;;;;;;5.63;2.10;;;;;;;2.07;100.00;100636.75;4958880;28;20272;-73
2022/04/10 05:41:00;;;;;;;3.97;2.03;;;;;;;2.10;100.00;100641.94;4965354;28;20309;-73
2022/04/10 05:43:30;;;;;;;4.37;2.30;;;;;;;2.15;100.00;100642.00;4978920;28;20597;-72
2022/04/10 05:45:57;;;;;;;5.67;2.07;;;;;;;2.13;100.00;100649.69;4954631;28;20224;-72
2022/04/10 05:48:24;;;;;;;4.23;2.07;;;;;;;2.21;100.00;100647.16;4974488;28;20212;-72
2022/04/10 05:50:51;;;;;;;3.00;2.23;;;;;;;2.32;100.00;100658.41;4963141;28;20249;-73
2022/04/10 05:53:18;;;;;;;5.47;2.37;;;;;;;2.43;100.00;100661.94;4966976;28;20573;-74
2022/04/10 05:55:45;;;;;;;8.63;2.70;;;;;;;2.43;100.00;100661.09;4974223;28;20197;-73
2022/04/10 05:58:18;;;;;;;4.97;2.20;;;;;;;2.45;100.00;100661.97;4975675;28;20216;-71
2022/04/10 06:00:44;;;;;;;2.30;1.97;;;;;;;2.49;100.00;100668.00;4987731;28;20201;-71
2022/04/10 06:03:17;;;;;;;9.00;2.20;;;;;;;2.50;100.00;100664.53;4968314;28;20221;-71
2022/04/10 06:05:47;;;;;;;3.97;2.17;;;;;;;2.46;100.00;100667.13;4983090;28;20205;-71
2022/04/10 06:08:22;;;;;;;4.87;2.43;;;;;;;2.47;100.00;100666.25;4967791;28;20268;-70
2022/04/10 06:10:50;;;;;;;7.10;2.63;;;;;;;2.65;100.00;100678.38;4984115;28;20476;-70
2022/04/10 06:13:17;;;;;;;5.63;2.47;;;;;;;2.76;100.00;100680.19;4965801;28;20202;-72
2022/04/10 06:15:52;;;;;;;7.40;2.80;;;;;;;2.86;100.00;100675.97;4967687;28;20574;-73
2022/04/10 06:18:20;;;;;;;5.37;2.40;;;;;;;2.86;99.75;100676.81;4963273;28;20300;-73
2022/04/10 06:20:47;;;;;;;6.07;2.40;;;;;;;2.99;100.00;100681.22;4986160;28;20224;-73
2022/04/10 06:23:13;;;;;;;3.80;2.20;;;;;;;2.97;99.09;100689.75;4972434;28;20734;-72
2022/04/10 06:25:42;;;;;;;5.93;2.43;;;;;;;2.93;98.27;100688.03;4965482;28;20190;-73
2022/04/10 06:28:12;;;;;;;4.47;2.23;;;;;;;3.05;99.38;100690.69;4967817;28;20213;-73
2022/04/10 06:30:45;;;;;;;5.10;1.97;;;;;;;3.13;99.76;100704.47;4975155;28;20225;-73
2022/04/10 06:33:12;;;;;;;7.87;2.40;;;;;;;3.19;99.76;100690.75;4963338;28;20246;-72
2022/04/10 06:35:40;;;;;;;6.00;2.60;;;;;;;3.25;98.71;100695.06;4968181;28;20207;-73
2022/04/10 06:38:08;;;;;;;6.13;2.03;;;;;;;3.27;97.69;100701.09;4984037;28;20815;-73
2022/04/10 06:40:35;;;;;;;4.97;2.30;;;;;;;3.34;96.49;100700.25;4968422;28;20237;-73
2022/04/10 06:43:05;;;;;;;5.43;2.43;;;;;;;3.46;97.62;100705.47;4987884;28;20631;-73
2022/04/10 06:45:51;;;;;;;7.13;3.13;;;;;;;3.53;96.86;100701.22;4970216;28;20216;-73
2022/04/10 06:48:35;;;;;;;6.37;2.50;;;;;;;3.62;96.92;100706.41;4984947;28;20268;-73
2022/04/10 06:51:04;;;;;;;8.10;2.60;;;;;;;3.69;96.71;100709.88;4965601;28;20309;-73
2022/04/10 06:53:30;;;;;;;5.80;2.50;;;;;;;3.62;95.76;100718.44;4972523;28;20204;-73
2022/04/10 06:55:58;;;;;;;4.67;2.70;;;;;;;3.55;94.81;100710.69;4974159;28;20225;-73
2022/04/10 06:58:24;;;;;;;5.53;2.40;;;;;;;3.54;95.83;100719.28;4971907;28;20198;-73
2022/04/10 07:00:53;;;;;;;9.30;3.10;;;;;;;3.50;94.39;100717.53;4980286;28;20228;-73
2022/04/10 07:03:20;;;;;;;8.73;3.13;;;;;;;3.55;94.26;100717.53;4963571;28;20214;-73
2022/04/10 07:05:48;;;;;;;4.57;2.70;;;;;;;3.56;94.03;100722.72;4967136;28;20857;-72
2022/04/10 07:08:20;;;;;;;9.33;2.57;;;;;;;3.45;93.10;100720.94;4970547;28;20657;-73
2022/04/10 07:10:46;;;;;;;4.57;2.93;;;;;;;3.43;94.04;100723.53;4960582;28;20730;-72
2022/04/10 07:13:17;;;;;;;6.53;2.63;;;;;;;3.34;93.81;100726.91;4970188;28;20201;-73
2022/04/10 07:15:45;;;;;;;10.57;3.27;;;;;;;3.34;94.37;100734.66;4965995;28;20214;-73
2022/04/10 07:18:12;;;;;;;3.33;2.33;;;;;;;3.41;95.03;100730.38;4971373;28;20205;-71
2022/04/10 07:20:39;;;;;;;7.80;3.20;;;;;;;3.42;93.63;100726.94;4968512;28;20280;-72
2022/04/10 07:25:54;;;;;;;8.03;3.13;;;;;;;3.50;93.22;100734.72;4986294;28;20293;-72
2022/04/10 07:28:21;;;;;;;5.20;2.83;;;;;;;3.54;93.09;100736.47;4973857;28;20272;-72
2022/04/10 07:30:51;;;;;;;6.77;3.03;;;;;;;3.60;92.29;100744.22;4986385;28;20597;-73
2022/04/10 07:33:20;;;;;;;12.57;3.27;;;;;;;3.64;92.40;100742.50;4967640;28;20602;-73
2022/04/10 07:35:53;;;;;;;5.33;2.40;;;;;;;3.60;92.24;100745.06;4967390;28;20281;-72
2022/04/10 07:38:22;;;;;;;8.10;2.97;;;;;;;3.56;91.69;100742.47;4980023;28;20206;-72
2022/04/10 07:40:49;;;;;;;5.90;2.53;;;;;;;3.58;91.84;100751.09;4962959;28;20304;-73
2022/04/10 07:43:24;;;;;;;9.00;2.63;;;;;;;3.56;91.57;100756.22;4978548;28;20309;-72
2022/04/10 07:48:45;;;;;;;7.17;3.43;;;;;;;3.53;90.83;100757.94;4966468;28;20578;-72
2022/04/10 07:51:15;;;;;;;17.90;10.30;;;;;;;3.62;90.24;100750.22;4958692;28;20320;-72
2022/04/10 07:54:02;;;;;;;10.20;4.37;;;;;;;3.59;90.25;100760.56;4969007;28;20205;-72
2022/04/10 07:56:28;;;;;;;11.20;5.53;;;;;;;3.66;90.95;100753.69;4976230;28;20217;-73
2022/04/10 07:58:55;;;;;;;11.57;4.97;;;;;;;3.73;92.00;100755.44;4979279;28;20199;-72
2022/04/10 08:01:29;;;;;;;8.00;4.23;;;;;;;3.76;90.92;100758.91;4961255;28;20229;-72
2022/04/10 08:03:58;;;;;;;6.37;3.57;;;;;;;3.67;89.44;100765.72;4969363;28;20245;-72
2022/04/10 08:06:43;;;;;;;10.03;6.20;;;;;;;3.63;90.12;100761.44;4972183;28;20223;-72
2022/04/10 08:09:10;;;;;;;8.10;3.13;;;;;;;3.64;91.39;100760.56;4972744;28;20213;-71
2022/04/10 08:11:36;;;;;;;7.20;2.63;;;;;;;3.63;92.42;100774.31;4969753;28;20747;-72
2022/04/10 08:14:02;;;;;;;6.10;2.80;;;;;;;3.64;92.88;100768.28;4971335;28;20210;-72
2022/04/10 08:16:29;;;;;;;6.87;2.50;;;;;;;3.69;92.89;100772.59;4973096;28;20202;-73
2022/04/10 08:18:56;;;;;;;7.90;3.50;;;;;;;3.81;93.01;100778.69;4967958;28;20213;-72
2022/04/10 08:21:23;;;;;;;9.83;3.00;;;;;;;3.89;90.94;100783.03;4970626;28;20980;-73
2022/04/10 08:23:49;;;;;;;6.37;3.10;;;;;;;4.08;93.10;100778.81;4965807;28;20228;-72
2022/04/10 08:26:16;;;;;;;6.80;2.67;;;;;;;4.24;90.46;100774.53;4960746;28;20525;-72
2022/04/10 08:28:42;;;;;;;7.60;2.83;;;;;;;4.34;87.76;100784.03;4966898;28;20203;-73
2022/04/10 08:31:08;;;;;;;9.30;2.97;;;;;;;4.51;86.62;100790.94;4968805;28;20239;-72
2022/04/10 08:33:35;;;;;;;5.83;2.17;;;;;;;4.63;85.04;100790.94;4971601;28;20216;-71
2022/04/10 08:36:01;;;;;;;6.33;2.07;;;;;;;4.76;84.81;100798.69;4972013;28;20206;-73
2022/04/10 08:38:29;;;;;;;8.17;2.50;;;;;;;4.82;82.69;100796.09;4968237;28;20205;-73
2022/04/10 08:40:59;;;;;;;10.10;2.87;;;;;;;4.91;82.63;100807.31;4971771;28;20773;-72
2022/04/10 08:43:26;;;;;;;7.67;2.50;;;;;;;5.06;83.20;100800.41;4968296;28;20218;-73
2022/04/10 08:45:55;;;;;;;6.17;2.80;;;;;;;5.12;82.31;100798.69;4965782;28;20221;-72
2022/04/10 08:48:24;;;;;;;9.03;2.60;;;;;;;5.16;80.06;100802.13;4962062;28;20217;-72
2022/04/10 08:50:51;;;;;;;4.63;2.20;;;;;;;5.30;80.78;100805.56;4964536;28;20226;-73
2022/04/10 08:53:19;;;;;;;9.20;2.57;;;;;;;5.38;80.29;100802.97;4965540;28;20201;-73
2022/04/10 08:55:46;;;;;;;5.43;2.30;;;;;;;5.32;81.25;100809.00;4963936;28;20582;-72
2022/04/10 08:58:13;;;;;;;4.93;2.30;;;;;;;5.23;80.17;100813.34;4960642;28;20602;-71
2022/04/10 09:00:42;;;;;;;7.60;2.20;;;;;;;4.92;80.99;100821.09;4966414;28;20718;-73
2022/04/10 09:03:08;;;;;;;8.47;2.80;;;;;;;4.53;85.90;100812.44;4973131;28;20226;-72
2022/04/10 09:05:34;;;;;;;4.53;2.17;;;;;;;4.39;91.08;100814.16;4966817;28;20197;-72
2022/04/10 09:08:12;;;;;;;7.23;2.50;;;;;;;4.43;93.28;100808.97;4962682;28;20202;-73
2022/04/10 09:11:00;;;;;;;9.53;2.60;;;;;;;4.58;94.76;100807.31;4966346;28;20208;-73
2022/04/10 09:13:29;;;;;;;4.97;2.23;;;;;;;4.72;94.63;100814.19;4969826;28;20204;-72
2022/04/10 09:16:02;;;;;;;9.03;2.57;;;;;;;4.92;94.57;100806.47;4976735;28;20665;-72
2022/04/10 09:18:28;;;;;;;10.53;4.77;;;;;;;5.15;93.96;100804.72;4973872;28;20202;-72
2022/04/10 09:21:08;;;;;;;10.53;2.63;;;;;;;5.29;91.74;100809.03;4970987;28;20278;-73
2022/04/10 09:23:34;;;;;;;10.40;3.57;;;;;;;5.46;90.82;100814.16;4970750;28;20559;-72
2022/04/10 09:26:02;;;;;;;6.30;2.57;;;;;;;5.49;88.13;100818.47;4963365;28;20260;-73
2022/04/10 09:28:42;;;;;;;6.80;2.47;;;;;;;5.45;87.97;100815.03;4963556;28;20205;-73
2022/04/10 09:31:27;;;;;;;9.73;2.57;;;;;;;5.40;89.80;100821.94;4951956;28;20632;-72
2022/04/10 09:33:54;;;;;;;5.70;2.67;;;;;;;5.07;86.54;100828.00;4955817;28;20208;-73
2022/04/10 09:36:35;;;;;;;4.23;2.27;;;;;;;5.27;92.22;100809.88;4962534;28;20677;-72
2022/04/10 09:39:04;;;;;;;8.30;3.03;;;;;;;5.37;93.95;100809.00;4955643;28;20209;-73
2022/04/10 09:41:31;;;;;;;7.17;2.67;;;;;;;5.49;94.29;100808.97;4953214;28;20221;-72
2022/04/10 09:44:11;;;;;;;7.20;2.90;;;;;;;5.59;93.04;100809.78;4950849;28;20248;-73
2022/04/10 09:46:38;;;;;;;6.90;2.90;;;;;;;5.98;95.93;100799.34;4958997;28;20201;-72
2022/04/10 09:49:05;;;;;;;5.83;2.90;;;;;;;6.28;93.62;100806.13;4960059;28;20777;-73
2022/04/10 09:51:32;;;;;;;7.20;3.10;;;;;;;6.23;89.24;100810.47;4952094;28;20253;-73
2022/04/10 09:54:03;;;;;;;7.17;3.13;;;;;;;6.20;89.48;100807.88;4954927;28;20229;-73
2022/04/10 09:56:31;;;;;;;7.87;2.80;;;;;;;6.24;89.19;100810.47;4961411;28;20212;-73
2022/04/10 09:58:59;;;;;;;8.93;3.20;;;;;;;6.20;88.63;100813.91;4966515;28;20232;-73
2022/04/10 10:01:27;;;;;;;4.83;2.40;;;;;;;5.95;86.44;100818.31;4961799;28;20210;-73
2022/04/10 10:03:55;;;;;;;4.27;2.50;;;;;;;5.94;90.22;100813.16;4958023;28;20598;-72
2022/04/10 10:06:23;;;;;;;4.33;2.43;;;;;;;5.91;89.71;100813.16;4958146;28;20213;-73
2022/04/10 10:08:50;;;;;;;4.57;2.37;;;;;;;6.09;91.95;100809.69;4954658;28;20593;-72
2022/04/10 10:11:19;;;;;;;6.40;2.50;;;;;;;6.03;89.40;100815.72;4978753;23;20213;-64
2022/04/10 10:13:47;;;;;;;6.77;2.70;;;;;;;5.87;90.31;100818.38;4989745;28;20205;-64
2022/04/10 10:16:14;;;;;;;5.40;2.20;;;;;;;5.67;88.66;100833.94;4998319;28;20224;-64
2022/04/10 10:18:40;;;;;;;7.80;3.10;;;;;;;5.63;91.20;100831.38;5001324;28;20196;-65
2022/04/10 10:21:09;;;;;;;7.20;2.63;;;;;;;5.24;92.41;100810.75;4994146;28;20669;-65
2022/04/10 10:23:37;;;;;;;5.23;2.50;;;;;;;5.10;94.25;100810.75;4979142;28;20220;-65
2022/04/10 10:26:15;;;;;;;5.10;2.30;;;;;;;5.06;98.85;100792.66;4981452;28;20201;-65
2022/04/10 10:29:25;;;;;;;4.73;2.27;;;;;;;5.13;98.11;100800.41;4978334;28;20688;-65
2022/04/10 10:32:02;;;;;;;5.73;2.47;;;;;;;5.38;98.35;100802.09;4914473;28;20773;-65
2022/04/10 10:34:31;;;;;;;5.93;2.60;;;;;;;5.74;95.82;100805.47;4974957;28;21710;-65
2022/04/10 10:37:02;;;;;;;6.37;2.47;;;;;;;6.13;97.59;100790.66;4984450;28;20224;-64
2022/04/10 10:39:30;;;;;;;7.97;2.97;;;;;;;6.38;97.43;100799.16;4978095;28;20466;-65
2022/04/10 10:42:10;;;;;;;4.43;2.43;;;;;;;6.38;94.26;100799.16;4970603;28;20226;-65
2022/04/10 10:44:49;;;;;;;5.63;2.43;;;;;;;6.06;91.98;100811.38;4985044;28;20953;-65
2022/04/10 10:47:24;;;;;;;6.60;2.43;;;;;;;5.93;92.44;100811.41;4984351;28;20301;-65
2022/04/10 10:49:52;;;;;;;4.83;2.10;;;;;;;5.93;91.05;100804.53;4983886;28;20772;-65
2022/04/10 10:52:19;;;;;;;6.73;2.87;;;;;;;5.91;90.81;100808.84;4982996;28;20690;-65
2022/04/10 10:54:51;;;;;;;10.67;2.67;;;;;;;5.70;89.40;100817.56;4982690;28;20202;-64
2022/04/10 10:57:23;;;;;;;5.87;3.50;;;;;;;5.52;89.73;100815.84;4986807;28;20495;-65
2022/04/10 10:59:52;;;;;;;4.10;2.23;;;;;;;5.44;92.45;100808.13;4988754;28;20201;-64
2022/04/10 11:02:21;;;;;;;3.87;2.10;;;;;;;5.53;95.92;100799.47;4982733;28;20249;-64
2022/04/10 11:04:50;;;;;;;6.27;2.60;;;;;;;5.77;95.34;100797.66;4990429;28;20218;-65
2022/04/10 11:07:24;;;;;;;5.43;2.40;;;;;;;6.03;92.58;100801.06;4991018;28;20280;-63
2022/04/10 11:09:55;;;;;;;7.60;2.50;;;;;;;6.24;90.95;100796.63;4992362;28;20609;-65
2022/04/10 11:12:23;;;;;;;6.73;2.10;;;;;;;6.24;89.58;100796.63;4981533;28;20228;-65
2022/04/10 11:14:51;;;;;;;4.67;2.03;;;;;;;6.36;89.12;100791.38;4989421;28;20574;-64
2022/04/10 11:17:21;;;;;;;3.03;1.73;;;;;;;6.55;87.19;100792.13;4996043;28;20236;-65
2022/04/10 11:19:49;;;;;;;6.73;2.10;;;;;;;6.85;84.35;100800.56;4990419;28;20681;-65
2022/04/10 11:22:21;;;;;;;7.30;2.30;;;;;;;6.90;79.87;100798.78;4993593;28;20229;-64
2022/04/10 11:24:51;;;;;;;5.67;2.10;;;;;;;6.84;77.11;100798.81;4998466;28;20228;-65
2022/04/10 11:27:43;;;;;;;7.30;2.57;;;;;;;6.91;75.20;100813.47;4991641;28;20208;-65
2022/04/10 11:30:11;;;;;;;10.70;3.43;;;;;;;6.85;71.19;100821.28;4988119;28;20208;-65
2022/04/10 11:32:44;;;;;;;4.57;1.70;;;;;;;7.01;71.08;100817.69;4991502;28;20224;-65
2022/04/10 11:35:22;;;;;;;6.33;2.67;;;;;;;7.13;70.25;100813.28;4988122;28;20206;-65
2022/04/10 11:37:50;;;;;;;7.33;3.67;;;;;;;7.25;70.98;100809.72;4982022;28;20296;-65
2022/04/10 11:40:21;;;;;;;9.07;2.43;;;;;;;7.24;70.31;100808.00;4983073;28;20201;-66